x

Southeast Hawaii - 205 Nm Southeast Of Hilo, Hi (51004) Wave Buoy

9:50am - Tue 3rd Mar 2015 All times are HST. -10 hours from GMT.

  • Sig Wave height 8.2ft
  • Swell Direction
  • Peak Period 13s
  • Average Period 7s
  • Wind
    13mph, 18mph gusts
  • Sea Temp 78°f
  • Air Temp 77°f
  • Sea Pressure 1015.3mb
  • Southeast Hawaii - 205 Nm Southeast Of Hilo, Hi
  • Southeast Hawaii - 205 Nm Southeast Of Hilo, Hi

More Historic Weather Station data

Upgrade to MSW Pro to gain access to the past 30 days of data for over 8000 Wavebouys and Weather Stations around the globe.

Join Pro

Comparision Forecast

View Surf forecast
   
Tue 03/03 9:50am 8ft 13s 7s 13 18 mph 1015.3mb 78f 77f
8:50am 8ft 8s 7s 11 13 mph 1015.2mb 78f 76f
7:50am 8.5ft 14s 7s 13 16 mph 1014.7mb 78f 77f
6:50am 8ft 14s 7s 13 16 mph 1014.4mb 78f 76f
5:50am 8ft 14s 7s 16 18 mph 1013.8mb 78f 77f
4:50am 8ft 14s 7s 16 18 mph 1013.5mb 78f 77f
3:50am 8ft 13s 7s 13 18 mph 1013.6mb 78f 77f
2:50am 8ft 14s 7s 18 22 mph 1013mb 78f 77f
1:50am 9ft 14s 7s 20 25 mph 1013.5mb 78f 77f
12:50am 8.5ft 14s 7s 20 25 mph 1014.2mb 78f 77f
Mon 03/02 11:50pm 8ft 14s 7s 22 25 mph 1015mb 78f 77f
10:50pm 7ft 14s 7s 20 25 mph 1015.4mb 78f 77f
9:50pm 7.5ft 15s 7s 18 20 mph 1015.9mb 78f 77f
8:50pm 7.5ft 15s 7s 20 22 mph 1015.1mb 78f 77f
7:50pm 8ft 15s 7s 20 25 mph 1014.5mb 78f 77f
6:50pm 8ft 15s 7s 20 25 mph 1014mb 78f 77f
5:50pm 8.5ft 15s 7s 18 22 mph 1014mb 78f 77f
4:50pm 8ft 16s 7s 18 22 mph 1013.6mb 78f 77f
3:50pm 7.5ft 16s 7s 18 22 mph 1013.7mb 78f 77f
2:50pm 8ft 16s 7s 18 20 mph 1013.5mb 78f 77f
1:50pm 8ft 8s 7s 13 16 mph 1014.4mb 78f 77f
12:50pm 8ft 8s 6s 16 20 mph 1014.6mb 78f 77f
11:50am 7ft 8s 6s 18 22 mph 1015.6mb 78f 77f
10:50am 7ft 7s 6s 20 27 mph 1015.1mb 78f 77f
9:50am 7.5ft 9s 6s 20 22 mph 1016.4mb 78f 77f
8:50am 7ft 9s 6s 20 25 mph 1015.5mb 78f 77f
7:50am 7.5ft 8s 6s 22 27 mph 1014.4mb 78f 77f
6:50am 7ft 8s 6s 20 25 mph 1013.9mb 78f 77f
5:50am 7ft 9s 6s 22 27 mph 1014.1mb 78f 77f
4:50am 7ft 8s 6s 22 27 mph 1012.4mb 78f 77f
3:50am 7ft 8s 6s 20 22 mph 1012.9mb 78f 77f
2:50am 7ft 9s 6s 16 20 mph 1013.1mb 78f 77f
1:50am 6.5ft 8s 6s 20 25 mph 1013.1mb 78f 77f
12:50am 6ft 8s 6s 18 25 mph 1013.8mb 78f 77f
Sun 03/01 11:50pm 6.5ft 9s 6s 13 18 mph 1014.6mb 78f 75f
10:50pm 7ft 9s 6s 22 29 mph 1014.8mb 78f 76f
9:50pm 6.5ft 9s 6s 18 20 mph 1014.7mb 78f 77f
8:50pm 6ft 9s 6s 18 22 mph 1014.6mb 78f 78f
7:50pm 6ft 9s 6s 18 22 mph 1013.7mb 78f 77f
6:50pm 5.5ft 10s 6s 16 20 mph 1012.9mb 78f 78f
5:50pm 6ft 9s 6s 16 18 mph 1012.6mb 78f 78f
4:50pm 6ft 9s 6s 16 18 mph 1012mb 78f 78f
3:50pm 6.5ft 9s 6s 16 20 mph 1011.3mb 78f 78f
2:50pm 6ft 10s 6s 18 22 mph 1011.1mb 78f 77f
1:50pm 6ft 9s 6s 18 20 mph 1011.7mb 79f 77f
12:50pm 6ft 9s 6s 18 22 mph 1012.1mb 79f 77f
11:50am 6ft 9s 6s 16 18 mph 1013.8mb 79f 78f
10:50am 6ft 9s 6s 18 20 mph 1014.4mb 78f 78f
9:50am 6.5ft 9s 6s 18 22 mph 1014.6mb 78f 78f
8:50am 6.5ft 8s 6s 18 20 mph 1014.3mb 78f 78f
7:50am 6ft 10s 6s 16 20 mph 1014.1mb 78f 78f
6:50am 6ft 9s 6s 18 20 mph 1013.5mb 78f 77f
5:50am 7ft 9s 6s 16 20 mph 1012.8mb 79f 77f
4:50am 6.5ft 9s 6s 16 18 mph 1012.4mb 79f 78f
3:50am 6ft 9s 6s 16 18 mph 1012.2mb 79f 77f
2:50am 6.5ft 10s 6s 16 20 mph 1011.7mb 79f 77f
1:50am 7ft 9s 7s 18 20 mph 1012.4mb 79f 77f
12:50am 7ft 10s 6s 16 20 mph 1013.1mb 79f 78f
Sat 02/28 11:50pm 7ft 10s 7s 18 20 mph 1013.4mb 79f 78f
10:50pm 7ft 10s 6s 18 20 mph 1013.8mb 79f 78f
9:50pm 7ft 9s 6s 20 22 mph 1013.2mb 79f 78f
8:50pm 8ft 9s 7s 16 20 mph 1013.6mb 79f 78f
7:50pm 8ft 9s 7s 18 20 mph 1012.6mb 79f 78f
6:50pm 7ft 10s 7s 16 18 mph 1011.8mb 79f 78f
5:50pm 7ft 9s 7s 13 16 mph 1011mb 79f 78f
4:50pm 7.5ft 9s 7s 7 11 mph 1010.6mb 79f 75f
3:50pm 7.5ft 9s 7s 7 9 mph 1010.8mb 79f 74f
2:50pm 8ft 10s 7s 4 11 mph 1010.9mb 79f 75f
1:50pm 8.5ft 10s 7s 13 18 mph 1011.2mb 79f 78f
12:50pm 7.5ft 10s 7s 13 18 mph 1012mb 79f 78f
11:50am 8ft 10s 7s 13 16 mph 1012.9mb 79f 78f
10:50am 8ft 10s 7s 16 20 mph 1013.3mb 79f 78f
9:50am 8.5ft 9s 7s 18 20 mph 1013.3mb 79f 79f
8:50am 8ft 9s 6s 18 22 mph 1013mb 79f 78f
7:50am 8ft 9s 6s 20 22 mph 1012.9mb 79f 78f
6:50am 7.5ft 10s 6s 22 27 mph 1011.9mb 79f 78f
5:50am 7.5ft 10s 6s 22 25 mph 1010.9mb 79f 78f
4:50am 7ft 9s 6s 25 27 mph 1010.4mb 79f 78f
3:50am 8ft 9s 6s 20 27 mph 1011mb 79f 78f
2:50am 7.5ft 10s 7s 13 18 mph 1011.6mb 79f 77f
1:50am 7.5ft 9s 7s 13 20 mph 1011.9mb 79f 76f
12:50am 7.5ft 8s 7s 11 16 mph 1012.8mb 79f 76f
Fri 02/27 11:50pm 8ft 9s 7s 16 29 mph 1013.7mb 79f 76f
10:50pm 8ft 10s 7s 16 20 mph 1013.6mb 79f 77f
9:50pm 7.5ft 9s 7s 16 18 mph 1013.5mb 79f 78f